Skip Navigation Links
NOAA logo - Click to go to the NOAA homepage
NOAA's National Weather Service
Alaska Aviation Weather Unit
  NWS logo - Click to go to the NWS homepage
Left Navbar Graphic     23 AKDT = 07 GMT

   
NOAA is celebrating 200 years of science, service, and stewardship. Visit the NOAA 200th celebration Web site to learn more.
USA.gov is the U.S. Government's official Web portal to all Federal, state and local government Web resources and services.
Facebook
NWS on Facebook

Important Change Regarding the AAWU Web Presence

 

Over the last several months, the AAWU has been working to navigate its webpages to a nationally supported server. Security, as well as other needs, have necessitated the change.  In the process, we have made an effort to enhance the functionality of our website, as well as some of our products. As of June 20, 2017, aawu.arh.noaa.gov will be discontinued. The new AAWU web address is weather.gov/aawu. It is now live and will run in-parallel with the old site until it is discontinued. Please send any feedback or questions regarding the new webpages to nws.ar.aawu.webauthors@noaa.gov.  Thank you for your patience during this time of transition.
AAWU Home :: Display TAF Add Bookmark
TAF PABE 240530Z 2406/2506 15014KT P6SM -RA BKN015 OVC025
     FM240700 18008KT P6SM -RA SCT008 OVC015
     FM241100 20012KT 6SM -RA BR BKN008
     FM241600 22018G25KT P6SM -SHRA SCT015 BKN025=

SPECI PABE 240100Z 15019G24KT 10SM -RA SCT019 BKN023 OVC047 07/04 A2982 RMK AO2 P0000 T00670044 $= METAR PABE 240153Z 16015KT 10SM -RA SCT021 BKN029 OVC048 06/04 A2981 RMK AO2 PK WND 16027/0105 SLP096 P0000 T00610044 $= SPECI PABE 240157Z 16015KT 10SM -RA FEW021 BKN049 OVC065 07/04 A2981 RMK AO2 P0000 T00670044 $= METAR PABE 240253Z 14017G22KT 7SM -RA SCT016 BKN020 OVC045 06/04 A2978 RMK AO2 SLP085 P0001 60002 T00610044 58023 $= SPECI PABE 240337Z 14017KT 10SM -RA FEW017 SCT022 OVC032 06/04 A2976 RMK AO2 P0003 T00610039 $= METAR PABE 240353Z 15016G24KT 10SM -RA SCT017 BKN033 OVC040 06/04 A2975 RMK AO2 SLP076 P0003 T00560044 $= PABE 240406Z 14014KT 10SM -RA BKN017 BKN033 OVC040 06/04 A2975= PABE 240406Z 14014KT 10SM -RA BKN017 BKN033 OVC040 06/04 A2975 RMK AO2 P0000 T00560044 $= METAR PABE 240453Z 14013KT 6SM -RA BR BKN019 OVC024 06/04 A2973 RMK AO2 SLP070 P0004 T00560044 $= METAR PABE 240553Z 14012KT 10SM -RA BKN017 OVC024 06/04 A2970 RMK AO2 SLP059 P0003 60012 T00560044 10072 20056 58026 $=
 Alaska TAF Map

NOAA's National Weather Service
Alaska Aviation Weather Unit
6930 Sand Lake Road
Anchorage, AK 99502-1845
Disclaimer
Credits
Glossary
Privacy Policy
About Us
Career Opportunities
Contact AAWU Internet Services Site last modified: April, 17th 2012